Time;durP1;ratioP1;P1;durP2;ratioP2;P2;SDS_P1;SDS_P2;PMS_P1;PMS_P2;Temp;Humidity;BMP_temperature;BMP_pressure;BME280_temperature;BME280_humidity;BME280_pressure;Samples;Min_cycle;Max_cycle;Signal;HPM_P1;HPM_P2
2023/02/24 00:01:36;;;;;;;41.07;14.23;;;6.90;99.90;;;;;;5016463;28;20830;-68
2023/02/24 00:04:06;;;;;;;39.80;17.13;;;6.90;99.90;;;;;;5013588;28;20423;-69
2023/02/24 00:06:36;;;;;;;36.13;16.00;;;6.90;99.90;;;;;;5001112;28;20519;-68
2023/02/24 00:09:07;;;;;;;38.10;14.13;;;6.90;99.90;;;;;;4997027;28;20436;-68
2023/02/24 00:11:35;;;;;;;40.53;16.57;;;6.90;99.90;;;;;;5002669;28;20490;-68
2023/02/24 00:14:04;;;;;;;42.60;14.07;;;6.90;99.90;;;;;;5021347;28;20426;-68
2023/02/24 00:16:31;;;;;;;34.30;13.70;;;6.90;99.90;;;;;;5025659;28;20439;-67
2023/02/24 00:18:57;;;;;;;42.90;13.90;;;6.90;99.90;;;;;;5021662;28;20541;-68
2023/02/24 00:21:23;;;;;;;32.20;13.33;;;6.80;99.90;;;;;;5024146;28;20795;-68
2023/02/24 00:23:48;;;;;;;35.83;16.93;;;6.90;99.90;;;;;;5022143;28;20400;-68
2023/02/24 00:26:15;;;;;;;49.67;17.53;;;6.80;99.90;;;;;;5019419;28;20442;-68
2023/02/24 00:28:41;;;;;;;39.73;15.13;;;6.90;99.90;;;;;;5013861;28;20533;-69
2023/02/24 00:31:12;;;;;;;25.40;11.63;;;6.90;99.90;;;;;;5023551;28;20948;-68
2023/02/24 00:33:39;;;;;;;35.40;11.90;;;6.80;99.90;;;;;;5019514;28;20410;-68
2023/02/24 00:36:26;;;;;;;34.40;13.90;;;6.80;99.90;;;;;;5022085;28;20489;-68
2023/02/24 00:38:57;;;;;;;38.73;12.63;;;6.80;99.90;;;;;;5022520;28;20457;-68
2023/02/24 00:41:28;;;;;;;38.00;12.93;;;6.70;99.90;;;;;;5025211;28;20410;-68
2023/02/24 00:43:55;;;;;;;28.27;13.97;;;6.70;99.90;;;;;;5022874;28;20475;-69
2023/02/24 00:46:24;;;;;;;25.87;11.70;;;6.70;99.90;;;;;;5020225;28;20514;-69
2023/02/24 00:48:53;;;;;;;24.87;10.30;;;6.60;99.90;;;;;;5026658;28;20549;-69
2023/02/24 00:51:25;;;;;;;26.30;11.13;;;6.60;99.90;;;;;;5007116;28;20439;-68
2023/02/24 00:53:57;;;;;;;29.40;11.60;;;6.60;99.90;;;;;;5012092;28;20837;-69
2023/02/24 00:56:27;;;;;;;26.57;10.63;;;6.60;99.90;;;;;;5021882;28;20492;-68
2023/02/24 00:58:54;;;;;;;25.23;10.27;;;6.50;99.90;;;;;;5027914;28;20450;-68
2023/02/24 01:01:22;;;;;;;17.43;7.50;;;6.40;99.90;;;;;;5024830;28;20412;-68
2023/02/24 01:03:49;;;;;;;15.70;8.40;;;6.30;99.90;;;;;;5020470;28;20422;-68
2023/02/24 01:06:19;;;;;;;13.00;5.17;;;6.20;99.90;;;;;;5025882;28;20450;-67
2023/02/24 01:08:46;;;;;;;12.40;6.93;;;6.10;99.90;;;;;;4983411;28;20416;-68
2023/02/24 01:13:59;;;;;;;16.83;4.83;;;6.00;99.90;;;;;;5018136;28;20406;-68
2023/02/24 01:16:24;;;;;;;8.93;4.70;;;5.90;99.90;;;;;;5026251;28;20446;-68
2023/02/24 01:18:50;;;;;;;7.63;4.70;;;5.90;99.90;;;;;;5019763;28;20462;-68
2023/02/24 01:21:18;;;;;;;9.83;4.00;;;5.90;99.90;;;;;;5023579;28;20167;-68
2023/02/24 01:23:46;;;;;;;8.40;3.57;;;5.80;99.90;;;;;;5022020;28;20413;-68
2023/02/24 01:26:12;;;;;;;9.40;3.40;;;5.80;99.90;;;;;;5016515;28;20545;-68
2023/02/24 01:28:37;;;;;;;18.20;4.97;;;5.70;99.90;;;;;;5048245;22;20593;-70
2023/02/24 01:31:05;;;;;;;8.70;3.70;;;5.80;99.90;;;;;;5029400;28;20178;-68
2023/02/24 01:33:36;;;;;;;6.50;3.73;;;5.70;99.90;;;;;;5044142;28;20188;-68
2023/02/24 01:36:22;;;;;;;11.10;2.70;;;5.60;99.90;;;;;;5040410;28;20438;-69
2023/02/24 01:38:48;;;;;;;7.80;3.57;;;5.60;99.90;;;;;;5035675;28;20489;-69
2023/02/24 01:41:17;;;;;;;8.50;3.60;;;5.40;99.90;;;;;;5029129;28;20430;-69
2023/02/24 01:44:02;;;;;;;8.97;3.70;;;5.40;99.90;;;;;;5039060;28;20407;-67
2023/02/24 01:46:31;;;;;;;11.90;4.30;;;5.30;99.90;;;;;;5019472;28;20511;-68
2023/02/24 01:49:09;;;;;;;7.80;3.43;;;5.20;99.90;;;;;;5038735;28;20426;-69
2023/02/24 01:51:38;;;;;;;7.07;3.47;;;5.10;99.90;;;;;;5042546;28;20528;-69
2023/02/24 01:54:07;;;;;;;22.20;3.93;;;5.10;99.90;;;;;;5041597;28;20493;-69
2023/02/24 01:56:34;;;;;;;10.10;3.30;;;5.00;99.90;;;;;;5042399;28;20501;-69
2023/02/24 01:59:00;;;;;;;8.10;3.50;;;5.00;99.90;;;;;;5039649;28;20884;-69
2023/02/24 02:01:27;;;;;;;21.17;5.40;;;5.00;99.90;;;;;;5042671;28;20413;-69
2023/02/24 02:04:01;;;;;;;7.90;2.43;;;5.00;99.90;;;;;;5021841;28;20438;-68
2023/02/24 02:06:28;;;;;;;6.63;2.87;;;5.00;99.90;;;;;;5041117;28;20413;-68
2023/02/24 02:08:54;;;;;;;3.20;2.43;;;4.90;99.90;;;;;;5041525;28;20433;-70
2023/02/24 02:11:19;;;;;;;13.63;2.80;;;4.80;99.90;;;;;;5041119;28;20416;-68
2023/02/24 02:13:49;;;;;;;11.07;3.13;;;4.70;99.90;;;;;;5041878;28;20244;-69
2023/02/24 02:16:33;;;;;;;8.50;3.10;;;4.60;99.90;;;;;;5040472;28;20171;-69
2023/02/24 02:19:17;;;;;;;6.23;2.80;;;4.60;99.90;;;;;;5043292;28;20897;-68
2023/02/24 02:21:55;;;;;;;9.40;2.30;;;4.60;99.90;;;;;;5024353;28;20418;-68
2023/02/24 02:24:26;;;;;;;6.33;2.00;;;4.50;99.90;;;;;;5038782;28;20400;-69
2023/02/24 02:27:18;;;;;;;5.17;1.97;;;4.50;99.90;;;;;;5036289;28;20417;-67
2023/02/24 02:30:12;;;;;;;7.27;2.23;;;4.40;99.90;;;;;;5042438;28;20490;-68
2023/02/24 02:33:06;;;;;;;8.60;2.03;;;4.40;99.90;;;;;;5037110;28;20413;-68
2023/02/24 02:35:58;;;;;;;11.90;2.90;;;4.30;99.90;;;;;;5032756;28;20441;-68
2023/02/24 02:38:50;;;;;;;3.53;2.03;;;4.30;99.90;;;;;;5031103;28;20504;-69
2023/02/24 02:41:42;;;;;;;15.57;3.07;;;4.20;99.90;;;;;;5013108;28;20531;-68
2023/02/24 02:44:23;;;;;;;7.40;2.37;;;4.10;99.90;;;;;;5026614;28;20465;-68
2023/02/24 02:46:59;;;;;;;4.20;1.80;;;4.10;99.90;;;;;;5043142;28;20448;-67
2023/02/24 02:49:48;;;;;;;8.50;3.13;;;4.00;99.90;;;;;;5045498;28;20431;-68
2023/02/24 02:52:46;;;;;;;10.53;3.10;;;4.00;99.90;;;;;;5047476;28;20832;-68
2023/02/24 02:55:20;;;;;;;10.90;1.93;;;4.00;99.90;;;;;;5016424;28;20865;-68
2023/02/24 02:57:48;;;;;;;7.97;1.60;;;3.90;99.90;;;;;;5041525;28;20419;-69
2023/02/24 03:00:28;;;;;;;5.13;2.90;;;3.90;99.90;;;;;;5026106;28;20977;-68
2023/02/24 03:03:07;;;;;;;7.73;1.50;;;3.90;99.90;;;;;;5010901;28;20418;-69
2023/02/24 03:05:42;;;;;;;2.90;1.30;;;3.90;99.90;;;;;;5037765;28;20420;-68
2023/02/24 03:08:10;;;;;;;10.60;1.57;;;3.90;99.90;;;;;;5042547;28;20422;-68
2023/02/24 03:10:39;;;;;;;5.73;2.30;;;3.90;99.90;;;;;;5046571;28;20409;-68
2023/02/24 03:13:08;;;;;;;5.37;2.07;;;3.90;99.90;;;;;;5044469;28;20748;-68
2023/02/24 03:15:35;;;;;;;13.43;2.20;;;3.90;99.90;;;;;;5033291;28;20434;-69
2023/02/24 03:18:09;;;;;;;5.37;2.70;;;3.90;99.90;;;;;;5046151;28;20432;-69
2023/02/24 03:20:50;;;;;;;5.33;1.97;;;3.90;99.90;;;;;;5047435;28;20455;-68
2023/02/24 03:23:25;;;;;;;9.60;2.73;;;3.80;99.90;;;;;;5036038;28;20425;-68
2023/02/24 03:25:57;;;;;;;3.53;1.67;;;3.80;99.90;;;;;;5020256;28;20513;-68
2023/02/24 03:28:36;;;;;;;6.33;2.07;;;3.80;99.90;;;;;;5022655;28;20771;-67
2023/02/24 03:31:26;;;;;;;1.70;1.60;;;3.80;99.90;;;;;;5041332;28;20410;-66
2023/02/24 03:34:10;;;;;;;7.90;1.53;;;3.80;99.90;;;;;;5042678;28;20521;-67
2023/02/24 03:36:36;;;;;;;3.10;1.60;;;3.70;99.90;;;;;;5044270;28;20416;-67
2023/02/24 03:39:04;;;;;;;8.20;1.83;;;3.80;99.90;;;;;;5043215;28;20466;-69
2023/02/24 03:41:43;;;;;;;8.70;1.90;;;3.80;99.90;;;;;;5044359;28;20416;-68
2023/02/24 03:44:10;;;;;;;7.50;2.27;;;3.80;99.90;;;;;;5038957;28;20413;-68
2023/02/24 03:46:37;;;;;;;3.43;1.80;;;3.70;99.90;;;;;;5025412;28;20437;-68
2023/02/24 03:49:11;;;;;;;11.97;2.10;;;3.70;99.90;;;;;;5008150;28;20876;-68
2023/02/24 03:51:37;;;;;;;5.80;2.00;;;3.80;99.90;;;;;;5030776;28;20428;-68
2023/02/24 03:54:30;;;;;;;5.30;1.80;;;3.80;99.90;;;;;;5044257;28;20479;-67
2023/02/24 03:57:06;;;;;;;3.10;2.20;;;3.70;99.90;;;;;;5016340;28;20466;-68
2023/02/24 03:59:40;;;;;;;9.47;2.17;;;3.70;99.90;;;;;;5036034;28;20458;-67
2023/02/24 04:02:24;;;;;;;3.87;1.77;;;3.70;99.90;;;;;;5047006;28;20413;-68
2023/02/24 04:05:11;;;;;;;5.83;2.07;;;3.70;99.90;;;;;;5019018;28;20930;-69
2023/02/24 04:07:39;;;;;;;5.47;2.47;;;3.70;99.90;;;;;;5038150;28;20426;-68
2023/02/24 04:10:08;;;;;;;4.97;1.93;;;3.70;99.90;;;;;;5029623;28;20434;-68
2023/02/24 04:13:00;;;;;;;3.80;2.17;;;3.70;99.90;;;;;;5013351;28;20431;-68
2023/02/24 04:15:42;;;;;;;2.17;1.83;;;3.80;99.90;;;;;;5016450;28;20431;-70
2023/02/24 04:18:26;;;;;;;9.07;3.30;;;3.80;99.90;;;;;;5041633;28;20995;-68
2023/02/24 04:20:54;;;;;;;2.30;1.83;;;3.80;99.90;;;;;;5027162;28;20546;-68
2023/02/24 04:23:29;;;;;;;5.97;2.70;;;3.70;99.90;;;;;;5028832;28;20548;-68
2023/02/24 04:25:55;;;;;;;9.23;2.57;;;3.70;99.90;;;;;;5045831;28;20901;-67
2023/02/24 04:28:22;;;;;;;9.43;3.17;;;3.80;99.90;;;;;;5019932;28;20949;-67
2023/02/24 04:30:51;;;;;;;5.30;2.00;;;3.80;99.90;;;;;;5045089;28;20513;-68
2023/02/24 04:33:18;;;;;;;2.97;2.73;;;3.80;99.90;;;;;;5031608;28;20433;-67
2023/02/24 04:35:45;;;;;;;7.53;2.70;;;3.80;99.90;;;;;;5011739;28;20443;-67
2023/02/24 04:38:11;;;;;;;6.23;3.47;;;3.80;99.90;;;;;;5043656;28;20430;-69
2023/02/24 04:40:39;;;;;;;11.80;2.90;;;3.80;99.90;;;;;;5039077;28;20926;-68
2023/02/24 04:43:06;;;;;;;13.83;1.90;;;3.70;99.90;;;;;;5045573;28;20416;-69
2023/02/24 04:45:32;;;;;;;6.83;3.03;;;3.70;99.90;;;;;;5039836;28;20446;-68
2023/02/24 04:48:02;;;;;;;8.10;2.93;;;3.80;99.90;;;;;;5046411;28;20789;-69
2023/02/24 04:50:33;;;;;;;8.10;3.77;;;3.80;99.90;;;;;;5039677;28;20411;-67
2023/02/24 04:53:01;;;;;;;6.90;3.37;;;3.80;99.90;;;;;;5024124;28;20435;-67
2023/02/24 04:55:31;;;;;;;11.80;3.13;;;3.70;99.90;;;;;;5008627;28;20453;-66
2023/02/24 04:57:58;;;;;;;3.63;2.53;;;3.80;99.90;;;;;;5014903;28;20798;-68
2023/02/24 05:00:33;;;;;;;13.13;3.07;;;3.80;99.90;;;;;;5008447;28;20538;-68
2023/02/24 05:03:01;;;;;;;6.00;3.53;;;3.80;99.90;;;;;;5028472;28;20449;-68
2023/02/24 05:05:27;;;;;;;5.57;2.97;;;3.80;99.90;;;;;;5042581;28;20854;-68
2023/02/24 05:08:07;;;;;;;5.27;2.77;;;3.90;99.90;;;;;;5039783;28;20473;-69
2023/02/24 05:10:39;;;;;;;11.50;3.47;;;3.80;99.90;;;;;;5045405;28;20369;-68
2023/02/24 05:13:07;;;;;;;4.27;2.20;;;3.80;99.90;;;;;;5041324;28;21006;-69
2023/02/24 05:15:37;;;;;;;9.70;2.60;;;3.80;99.90;;;;;;5042813;28;20397;-69
2023/02/24 05:18:08;;;;;;;3.50;2.50;;;3.80;99.90;;;;;;5028857;28;20450;-69
2023/02/24 05:23:26;;;;;;;9.60;2.83;;;3.70;99.90;;;;;;5028997;28;20441;-67
2023/02/24 05:25:53;;;;;;;4.37;2.23;;;3.70;99.90;;;;;;5042577;28;20418;-69
2023/02/24 05:28:24;;;;;;;4.90;2.30;;;3.70;99.90;;;;;;5035458;28;20501;-68
2023/02/24 05:30:50;;;;;;;3.10;2.30;;;3.70;99.90;;;;;;5042647;28;20420;-69
2023/02/24 05:33:20;;;;;;;5.47;2.40;;;3.80;99.90;;;;;;5035162;28;20501;-69
2023/02/24 05:35:47;;;;;;;4.47;2.27;;;3.80;99.90;;;;;;5046677;28;20441;-70
2023/02/24 05:38:13;;;;;;;5.37;2.57;;;3.80;99.90;;;;;;5005926;28;21005;-69
2023/02/24 05:40:45;;;;;;;9.07;2.40;;;3.80;99.90;;;;;;5000635;28;20427;-70
2023/02/24 05:43:16;;;;;;;3.93;1.87;;;3.80;99.90;;;;;;5012954;28;20437;-69
2023/02/24 05:45:44;;;;;;;3.20;2.20;;;3.70;99.90;;;;;;5026684;28;20445;-69
2023/02/24 05:48:11;;;;;;;3.43;1.73;;;3.80;99.90;;;;;;5044490;28;20514;-69
2023/02/24 05:50:37;;;;;;;3.97;2.17;;;3.70;99.90;;;;;;5038919;28;20442;-70
2023/02/24 05:53:03;;;;;;;7.83;3.10;;;3.70;99.90;;;;;;5048262;28;20406;-68
2023/02/24 05:55:30;;;;;;;4.27;2.10;;;3.70;99.90;;;;;;5042882;28;20406;-68
2023/02/24 05:57:58;;;;;;;2.60;1.80;;;3.70;99.90;;;;;;5044171;28;20422;-69
2023/02/24 06:00:24;;;;;;;4.70;2.90;;;3.60;99.90;;;;;;5044098;28;20800;-68
2023/02/24 06:02:51;;;;;;;5.90;2.60;;;3.70;99.90;;;;;;5014056;28;20431;-67
2023/02/24 06:05:27;;;;;;;3.10;1.77;;;3.70;99.90;;;;;;5016776;28;20488;-69
2023/02/24 06:08:05;;;;;;;3.57;2.23;;;3.70;99.90;;;;;;5016530;28;20450;-67
2023/02/24 06:10:34;;;;;;;2.60;1.60;;;3.80;99.90;;;;;;5047315;28;20918;-68
2023/02/24 06:13:02;;;;;;;5.53;2.10;;;3.80;99.90;;;;;;5042728;28;20418;-70
2023/02/24 06:15:29;;;;;;;3.00;2.33;;;3.80;99.90;;;;;;5045593;28;20417;-67
2023/02/24 06:17:59;;;;;;;1.97;1.33;;;3.90;99.90;;;;;;5045791;28;20433;-68
2023/02/24 06:20:28;;;;;;;4.17;1.40;;;3.80;99.90;;;;;;5046179;28;20445;-69
2023/02/24 06:22:57;;;;;;;6.07;1.60;;;3.80;99.90;;;;;;5044942;28;20417;-68
2023/02/24 06:25:24;;;;;;;1.83;1.20;;;3.80;99.90;;;;;;5029609;28;20972;-69
2023/02/24 06:27:53;;;;;;;3.30;1.50;;;3.80;99.90;;;;;;5043020;28;20409;-68
2023/02/24 06:30:21;;;;;;;8.67;2.00;;;3.80;99.90;;;;;;5041273;28;20968;-68
2023/02/24 06:32:47;;;;;;;3.10;1.47;;;3.90;99.90;;;;;;5026093;28;20540;-69
2023/02/24 06:35:13;;;;;;;4.30;1.40;;;3.90;99.90;;;;;;5043696;28;20424;-70
2023/02/24 06:37:39;;;;;;;8.33;1.67;;;3.90;99.90;;;;;;5046018;28;20822;-68
2023/02/24 06:40:15;;;;;;;9.10;1.70;;;3.90;99.90;;;;;;5040541;28;20681;-69
2023/02/24 06:42:45;;;;;;;12.23;2.07;;;3.90;99.90;;;;;;5028207;28;20425;-67
2023/02/24 06:45:12;;;;;;;8.63;1.73;;;3.90;99.90;;;;;;5040596;28;20426;-68
2023/02/24 06:47:37;;;;;;;2.60;1.13;;;3.90;99.90;;;;;;5029643;28;20856;-69
2023/02/24 06:50:08;;;;;;;3.37;1.37;;;3.80;99.90;;;;;;5039304;28;20461;-69
2023/02/24 06:52:35;;;;;;;6.20;2.80;;;3.90;99.90;;;;;;5044870;28;20186;-69
2023/02/24 06:55:03;;;;;;;3.67;1.53;;;4.00;99.90;;;;;;5038703;28;20909;-69
2023/02/24 06:57:33;;;;;;;1.00;1.00;;;4.00;99.90;;;;;;5035799;28;20510;-68
2023/02/24 07:00:00;;;;;;;6.27;1.30;;;3.90;99.90;;;;;;5043726;28;21010;-68
2023/02/24 07:02:28;;;;;;;4.20;1.57;;;4.00;99.90;;;;;;5045749;28;20923;-69
2023/02/24 07:04:57;;;;;;;4.23;1.63;;;4.00;99.90;;;;;;5043539;28;20417;-70
2023/02/24 07:07:22;;;;;;;9.00;2.33;;;4.00;99.90;;;;;;5044658;28;20410;-68
2023/02/24 07:09:48;;;;;;;1.77;1.67;;;4.00;99.90;;;;;;5039722;28;20438;-68
2023/02/24 07:12:19;;;;;;;1.80;1.60;;;4.00;99.90;;;;;;5025014;28;20183;-69
2023/02/24 07:14:49;;;;;;;2.60;2.07;;;4.00;99.90;;;;;;5041669;28;20251;-68
2023/02/24 07:17:17;;;;;;;7.33;2.03;;;4.00;99.90;;;;;;5038520;28;20414;-68
2023/02/24 07:19:43;;;;;;;9.10;2.37;;;4.10;99.90;;;;;;5043977;28;21078;-68
2023/02/24 07:22:09;;;;;;;5.23;1.63;;;4.10;99.90;;;;;;5038214;28;20428;-69
2023/02/24 07:24:39;;;;;;;8.63;1.87;;;4.00;99.90;;;;;;5038026;28;20430;-69
2023/02/24 07:27:22;;;;;;;2.63;1.97;;;3.90;99.90;;;;;;5042078;28;20492;-67
2023/02/24 07:29:51;;;;;;;4.03;2.27;;;3.90;99.90;;;;;;5042331;28;20453;-68
2023/02/24 07:32:17;;;;;;;2.87;1.70;;;3.90;99.90;;;;;;5044507;28;20904;-68
2023/02/24 07:34:43;;;;;;;1.70;1.60;;;3.90;99.90;;;;;;5044478;28;20420;-68
2023/02/24 07:37:10;;;;;;;5.50;1.87;;;3.90;99.90;;;;;;5043371;28;20181;-69
2023/02/24 07:39:37;;;;;;;2.80;1.70;;;3.90;99.90;;;;;;5031670;28;20463;-69
2023/02/24 07:42:04;;;;;;;2.20;1.40;;;4.00;99.90;;;;;;5022199;28;20424;-69
2023/02/24 07:44:30;;;;;;;4.53;2.30;;;3.90;99.90;;;;;;5045191;28;20771;-69
2023/02/24 07:46:58;;;;;;;6.50;2.03;;;3.90;99.90;;;;;;5027410;28;20425;-69
2023/02/24 07:49:24;;;;;;;1.67;1.50;;;3.90;99.90;;;;;;5044229;28;20544;-67
2023/02/24 07:51:51;;;;;;;3.27;1.97;;;3.90;99.90;;;;;;5043419;28;20413;-70
2023/02/24 07:54:22;;;;;;;2.90;1.57;;;4.10;99.90;;;;;;5044154;28;20770;-68
2023/02/24 07:56:55;;;;;;;8.90;2.30;;;4.00;99.90;;;;;;5026062;28;20418;-69
2023/02/24 07:59:26;;;;;;;3.33;2.13;;;4.20;99.90;;;;;;5022455;28;20606;-70
2023/02/24 08:01:54;;;;;;;3.47;2.33;;;4.10;99.90;;;;;;5041264;28;20496;-67
2023/02/24 08:06:49;;;;;;;3.10;1.97;;;4.20;99.90;;;;;;5019706;22;20498;-68
2023/02/24 08:09:19;;;;;;;2.70;1.77;;;4.30;99.90;;;;;;5000983;28;20434;-65
2023/02/24 08:11:55;;;;;;;3.73;2.20;;;4.40;99.90;;;;;;5008637;28;20431;-71
2023/02/24 08:14:25;;;;;;;3.50;1.97;;;4.40;99.90;;;;;;5016078;28;20497;-69
2023/02/24 08:17:04;;;;;;;4.00;1.70;;;4.40;99.90;;;;;;4994509;28;20463;-71
2023/02/24 08:19:38;;;;;;;2.90;1.80;;;4.40;99.90;;;;;;5004465;28;20497;-69
2023/02/24 08:24:49;;;;;;;3.20;1.50;;;4.30;99.90;;;;;;4991967;28;20439;-69
2023/02/24 08:27:19;;;;;;;3.73;2.00;;;4.40;99.90;;;;;;4997078;28;20411;-70
2023/02/24 08:30:02;;;;;;;8.50;2.73;;;4.40;99.90;;;;;;5006581;28;20767;-69
2023/02/24 08:32:37;;;;;;;5.43;2.63;;;4.30;99.90;;;;;;4999580;28;20416;-69
2023/02/24 08:35:14;;;;;;;6.67;2.73;;;4.40;99.90;;;;;;4997959;28;20582;-68
2023/02/24 08:37:47;;;;;;;4.17;1.70;;;4.60;99.90;;;;;;4984639;28;20436;-69
2023/02/24 08:41:07;;;;;;;1.80;1.70;;;4.60;99.90;;;;;;4996681;28;20491;-70
2023/02/24 08:43:31;;;;;;;8.90;2.20;;;4.60;99.90;;;;;;4978370;28;20411;-70
2023/02/24 08:46:12;;;;;;;5.20;2.00;;;4.90;99.90;;;;;;4992582;28;20422;-70
2023/02/24 08:48:54;;;;;;;3.17;1.87;;;4.90;99.90;;;;;;5003319;28;20407;-69
2023/02/24 08:51:27;;;;;;;3.77;1.70;;;4.90;99.90;;;;;;5002503;28;21005;-70
2023/02/24 08:53:55;;;;;;;2.30;2.10;;;4.90;99.90;;;;;;4999171;28;20412;-71
2023/02/24 08:56:27;;;;;;;2.23;1.83;;;5.00;99.90;;;;;;5003129;28;20990;-69
2023/02/24 08:58:56;;;;;;;3.07;1.97;;;5.10;99.90;;;;;;5001845;28;20454;-69
2023/02/24 09:01:36;;;;;;;3.70;2.07;;;5.10;99.90;;;;;;4999795;28;20474;-69
2023/02/24 09:04:09;;;;;;;2.77;1.63;;;5.10;99.90;;;;;;4995168;28;20989;-69
2023/02/24 09:06:42;;;;;;;3.60;2.50;;;5.30;99.90;;;;;;5003873;28;20461;-70
2023/02/24 09:09:16;;;;;;;14.10;2.70;;;5.40;99.90;;;;;;5003766;28;20435;-71
2023/02/24 09:11:48;;;;;;;3.53;2.10;;;5.20;99.90;;;;;;4985963;28;20448;-70
2023/02/24 09:14:17;;;;;;;8.03;2.30;;;5.30;99.90;;;;;;4978115;28;20436;-69
2023/02/24 09:17:09;;;;;;;5.93;2.37;;;5.40;99.90;;;;;;4982086;28;20448;-70
2023/02/24 09:22:31;;;;;;;10.77;2.80;;;5.10;99.90;;;;;;4993734;28;20502;-71
2023/02/24 09:25:17;;;;;;;2.47;2.23;;;5.20;99.90;;;;;;5002145;28;20438;-70
2023/02/24 09:28:06;;;;;;;4.07;2.40;;;5.10;99.90;;;;;;5005989;28;20475;-69
2023/02/24 09:30:49;;;;;;;2.90;1.87;;;5.20;99.90;;;;;;4997672;28;20440;-70
2023/02/24 09:33:26;;;;;;;8.97;2.20;;;5.30;99.90;;;;;;4994561;28;20878;-70
2023/02/24 09:36:09;;;;;;;4.20;2.87;;;5.20;99.90;;;;;;4989420;28;20424;-70
2023/02/24 09:41:30;;;;;;;4.20;2.00;;;5.30;99.90;;;;;;4993953;28;20906;-70
2023/02/24 09:43:59;;;;;;;7.63;2.30;;;5.60;99.90;;;;;;5002619;28;20408;-70
2023/02/24 09:46:24;;;;;;;7.50;2.10;;;5.40;99.90;;;;;;5004072;28;20797;-70
2023/02/24 09:49:04;;;;;;;12.73;2.80;;;5.40;99.90;;;;;;4992963;28;20500;-71
2023/02/24 09:51:41;;;;;;;3.83;2.30;;;5.40;99.90;;;;;;4998303;28;20172;-70
2023/02/24 09:54:18;;;;;;;3.00;1.70;;;5.40;99.90;;;;;;4998058;28;20514;-70
2023/02/24 09:57:06;;;;;;;5.90;1.90;;;5.40;99.90;;;;;;4994192;28;20977;-70
2023/02/24 09:59:59;;;;;;;5.87;2.57;;;5.30;99.90;;;;;;4994339;28;20885;-70
2023/02/24 10:03:19;;;;;;;6.03;2.00;;;5.40;99.90;;;;;;4996196;28;20416;-70
2023/02/24 10:06:11;;;;;;;2.97;1.60;;;5.90;99.90;;;;;;4982095;28;20542;-69
2023/02/24 10:08:41;;;;;;;4.13;2.33;;;5.50;99.90;;;;;;4990572;28;20531;-70
2023/02/24 10:11:10;;;;;;;3.90;1.90;;;5.60;99.90;;;;;;5000837;28;20412;-70
2023/02/24 10:13:52;;;;;;;2.27;2.07;;;5.60;99.90;;;;;;4998252;28;20416;-70
2023/02/24 10:16:22;;;;;;;2.77;1.30;;;5.60;99.90;;;;;;4993832;28;20424;-69
2023/02/24 10:19:15;;;;;;;1.97;1.57;;;5.50;99.90;;;;;;4996861;28;20455;-69
2023/02/24 10:21:59;;;;;;;4.10;1.40;;;5.80;99.90;;;;;;4996410;28;20408;-70
2023/02/24 10:24:46;;;;;;;2.47;1.30;;;5.70;99.90;;;;;;4986111;28;20824;-69
2023/02/24 10:27:22;;;;;;;4.83;1.77;;;5.60;99.90;;;;;;4991481;28;20985;-69
2023/02/24 10:30:26;;;;;;;1.80;1.47;;;5.70;99.90;;;;;;5002531;28;20510;-69
2023/02/24 10:32:59;;;;;;;5.03;1.30;;;6.00;99.90;;;;;;5003754;28;20431;-69
2023/02/24 10:35:32;;;;;;;4.43;1.40;;;5.90;99.90;;;;;;4999632;28;20431;-70
2023/02/24 10:38:04;;;;;;;1.53;1.43;;;5.90;99.90;;;;;;5007347;28;20435;-70
2023/02/24 10:40:45;;;;;;;6.07;1.53;;;5.90;99.90;;;;;;5003220;28;20462;-71
2023/02/24 10:43:17;;;;;;;3.50;1.23;;;6.00;99.90;;;;;;5006519;28;20403;-69
2023/02/24 10:45:44;;;;;;;3.13;1.47;;;5.70;99.90;;;;;;5005111;28;20863;-69
2023/02/24 10:48:25;;;;;;;6.20;1.83;;;5.80;99.90;;;;;;4998875;28;20918;-70
2023/02/24 10:51:07;;;;;;;1.70;1.60;;;5.60;99.90;;;;;;5003541;28;20420;-70
2023/02/24 10:53:36;;;;;;;3.80;1.87;;;5.60;99.90;;;;;;5007542;28;20469;-70
2023/02/24 11:02:05;;;;;;;1.23;1.13;;;5.30;99.90;;;;;;4996182;28;20475;-70
2023/02/24 11:04:52;;;;;;;4.00;1.80;;;5.10;99.90;;;;;;4998371;28;20499;-69
2023/02/24 11:07:32;;;;;;;1.37;1.20;;;5.10;99.90;;;;;;4996865;28;20507;-70
2023/02/24 11:10:25;;;;;;;2.53;1.80;;;4.90;99.90;;;;;;4986290;28;20427;-69
2023/02/24 11:18:30;;;;;;;1.43;1.30;;;4.50;99.90;;;;;;4991340;28;20410;-70
2023/02/24 11:21:04;;;;;;;1.70;1.47;;;4.50;99.90;;;;;;4993805;28;20436;-69
2023/02/24 11:23:55;;;;;;;6.10;1.80;;;4.50;99.90;;;;;;5001204;28;20428;-70
2023/02/24 11:26:29;;;;;;;2.70;1.40;;;4.40;99.90;;;;;;4985586;28;20879;-70
2023/02/24 11:29:02;;;;;;;3.87;1.50;;;4.50;99.90;;;;;;5003043;28;20792;-70
2023/02/24 11:31:50;;;;;;;1.70;1.57;;;4.30;99.90;;;;;;4998361;28;20749;-69
2023/02/24 11:34:20;;;;;;;5.10;1.40;;;4.30;99.90;;;;;;4997017;28;20415;-68
2023/02/24 11:37:05;;;;;;;1.77;1.60;;;4.20;99.90;;;;;;4997196;28;20479;-69
2023/02/24 11:39:52;;;;;;;3.37;1.50;;;3.90;99.90;;;;;;5006936;28;20451;-69
2023/02/24 11:42:45;;;;;;;7.03;2.40;;;3.70;99.90;;;;;;5005006;28;20412;-70
2023/02/24 11:45:16;;;;;;;4.80;2.07;;;3.60;99.90;;;;;;5009362;28;20440;-70
2023/02/24 11:47:47;;;;;;;4.17;2.23;;;3.60;99.90;;;;;;5000454;28;20428;-70
2023/02/24 11:50:38;;;;;;;4.30;2.47;;;3.70;99.90;;;;;;5007065;28;20541;-69
2023/02/24 11:53:13;;;;;;;5.70;1.83;;;3.60;99.90;;;;;;5003208;28;20567;-68
2023/02/24 11:55:42;;;;;;;5.00;2.50;;;3.60;99.90;;;;;;5004805;28;20459;-70
2023/02/24 11:58:26;;;;;;;2.90;2.10;;;3.60;99.90;;;;;;4996286;28;20432;-70
2023/02/24 12:01:04;;;;;;;4.03;1.80;;;3.70;99.90;;;;;;4997038;28;20558;-73
2023/02/24 12:04:02;;;;;;;2.30;1.80;;;3.70;99.90;;;;;;5005292;28;20430;-69
2023/02/24 12:06:36;;;;;;;7.20;2.37;;;3.80;99.90;;;;;;4999514;28;20439;-69
2023/02/24 12:09:16;;;;;;;3.80;2.53;;;3.60;99.90;;;;;;5003303;28;20415;-70
2023/02/24 12:12:12;;;;;;;6.23;2.60;;;3.70;99.90;;;;;;4996923;28;20415;-70
2023/02/24 12:14:59;;;;;;;5.83;3.60;;;3.60;99.90;;;;;;4997334;28;20470;-69
2023/02/24 12:17:48;;;;;;;2.60;1.87;;;3.60;99.90;;;;;;4995878;28;20933;-69
2023/02/24 12:20:28;;;;;;;4.10;1.90;;;3.60;99.90;;;;;;4994574;28;20550;-69
2023/02/24 12:23:00;;;;;;;2.93;1.83;;;3.50;99.90;;;;;;5003840;28;20422;-69
2023/02/24 12:25:31;;;;;;;3.10;2.20;;;3.40;99.90;;;;;;5001312;28;20440;-69
2023/02/24 12:27:56;;;;;;;4.33;1.80;;;3.40;99.90;;;;;;5007154;28;20442;-69
2023/02/24 12:30:37;;;;;;;2.03;1.50;;;3.50;99.90;;;;;;5001123;28;20460;-69
2023/02/24 12:33:15;;;;;;;4.00;1.90;;;3.70;99.90;;;;;;4995701;28;20187;-69
2023/02/24 12:35:51;;;;;;;4.20;2.30;;;3.60;99.90;;;;;;4998177;28;20502;-69
2023/02/24 12:38:31;;;;;;;4.87;2.03;;;3.60;99.90;;;;;;5001263;28;20824;-69
2023/02/24 12:41:23;;;;;;;1.47;1.30;;;3.50;99.90;;;;;;4997863;28;20428;-69
2023/02/24 12:44:12;;;;;;;1.70;1.47;;;3.40;99.90;;;;;;4989432;28;20427;-69
2023/02/24 12:46:39;;;;;;;1.87;1.77;;;3.40;99.90;;;;;;4991241;28;20919;-69
2023/02/24 12:49:24;;;;;;;3.13;1.50;;;3.50;99.90;;;;;;5002221;28;20423;-70
2023/02/24 12:51:55;;;;;;;4.17;2.10;;;3.40;99.90;;;;;;5003805;28;20849;-70
2023/02/24 12:54:51;;;;;;;3.10;1.97;;;3.40;99.90;;;;;;4990801;28;20404;-69
2023/02/24 12:57:40;;;;;;;2.80;2.33;;;3.50;99.90;;;;;;4991415;28;20416;-69
2023/02/24 13:00:29;;;;;;;3.57;1.70;;;3.30;99.90;;;;;;4992527;28;20460;-69
2023/02/24 13:03:27;;;;;;;1.40;1.30;;;3.30;99.90;;;;;;4993564;28;20515;-69
2023/02/24 13:06:14;;;;;;;3.70;2.37;;;3.30;99.90;;;;;;4980266;28;20487;-69
2023/02/24 13:08:59;;;;;;;2.43;1.90;;;3.30;99.90;;;;;;4996665;28;20487;-68
2023/02/24 13:11:37;;;;;;;4.07;2.03;;;3.30;99.90;;;;;;4997593;28;20428;-70
2023/02/24 13:14:06;;;;;;;2.07;1.87;;;3.40;99.90;;;;;;5000117;28;20553;-68
2023/02/24 13:16:34;;;;;;;1.80;1.70;;;3.20;99.90;;;;;;5008063;28;20453;-68
2023/02/24 13:19:18;;;;;;;2.20;1.60;;;3.20;99.90;;;;;;4973762;28;20505;-69
2023/02/24 13:22:06;;;;;;;2.60;2.10;;;3.20;99.90;;;;;;4995765;28;20477;-69
2023/02/24 13:24:32;;;;;;;3.10;1.90;;;3.30;99.90;;;;;;4996573;28;20494;-69
2023/02/24 13:27:21;;;;;;;2.43;2.23;;;3.20;99.90;;;;;;5004128;28;20396;-70
2023/02/24 13:29:59;;;;;;;2.50;2.23;;;3.10;99.90;;;;;;5003022;28;20407;-70
2023/02/24 13:32:34;;;;;;;3.53;2.30;;;3.10;99.90;;;;;;4999003;28;20404;-69
2023/02/24 13:35:04;;;;;;;2.83;1.63;;;3.10;99.90;;;;;;4993825;28;20435;-68
2023/02/24 13:37:36;;;;;;;1.87;1.40;;;3.10;99.90;;;;;;4991721;28;20475;-69
2023/02/24 13:40:17;;;;;;;8.70;2.00;;;3.00;99.90;;;;;;5000312;28;20456;-70
2023/02/24 13:42:59;;;;;;;3.33;2.00;;;3.10;99.90;;;;;;4996222;28;20496;-69
2023/02/24 13:45:28;;;;;;;6.50;2.50;;;3.00;99.90;;;;;;4999320;28;20431;-70
2023/02/24 13:48:16;;;;;;;2.50;1.87;;;3.10;99.90;;;;;;5001225;28;20415;-68
2023/02/24 13:51:12;;;;;;;3.30;2.77;;;3.00;99.90;;;;;;5002934;28;20412;-69
2023/02/24 13:54:04;;;;;;;3.97;2.00;;;3.10;99.90;;;;;;4995965;28;20502;-69
2023/02/24 13:56:48;;;;;;;2.70;2.50;;;3.10;99.90;;;;;;4999535;28;20450;-70
2023/02/24 13:59:25;;;;;;;3.70;2.73;;;3.10;99.90;;;;;;5000366;28;21060;-71
2023/02/24 14:01:58;;;;;;;2.40;2.03;;;3.10;99.90;;;;;;5000114;28;20460;-69